sensor_id;sensor_type;location;lat;lon;timestamp;P1;durP1;ratioP1;P2;durP2;ratioP2
10489;SDS011;35569;48.402;10.670;2022-10-22T00:00:08;1.90;;;1.83;;
10489;SDS011;35569;48.402;10.670;2022-10-22T00:00:42;1.80;;;1.80;;
10489;SDS011;35569;48.402;10.670;2022-10-22T00:01:15;1.70;;;1.70;;
10489;SDS011;35569;48.402;10.670;2022-10-22T00:01:50;1.60;;;1.60;;
10489;SDS011;35569;48.402;10.670;2022-10-22T00:02:22;1.97;;;1.87;;
10489;SDS011;35569;48.402;10.670;2022-10-22T00:02:55;1.60;;;1.60;;
10489;SDS011;35569;48.402;10.670;2022-10-22T00:03:30;1.80;;;1.70;;
10489;SDS011;35569;48.402;10.670;2022-10-22T00:04:05;2.00;;;1.90;;
10489;SDS011;35569;48.402;10.670;2022-10-22T00:04:37;1.83;;;1.73;;
10489;SDS011;35569;48.402;10.670;2022-10-22T00:05:12;1.83;;;1.83;;
10489;SDS011;35569;48.402;10.670;2022-10-22T00:05:44;1.93;;;1.83;;
10489;SDS011;35569;48.402;10.670;2022-10-22T00:06:16;2.37;;;2.27;;
10489;SDS011;35569;48.402;10.670;2022-10-22T00:06:48;1.90;;;1.90;;
10489;SDS011;35569;48.402;10.670;2022-10-22T00:07:23;1.63;;;1.63;;
10489;SDS011;35569;48.402;10.670;2022-10-22T00:07:55;1.77;;;1.77;;
10489;SDS011;35569;48.402;10.670;2022-10-22T00:08:28;1.87;;;1.77;;
10489;SDS011;35569;48.402;10.670;2022-10-22T00:09:03;1.97;;;1.97;;
10489;SDS011;35569;48.402;10.670;2022-10-22T00:09:35;2.10;;;2.00;;
10489;SDS011;35569;48.402;10.670;2022-10-22T00:10:10;2.10;;;1.80;;
10489;SDS011;35569;48.402;10.670;2022-10-22T00:10:42;1.60;;;1.60;;
10489;SDS011;35569;48.402;10.670;2022-10-22T00:11:15;2.23;;;2.13;;
10489;SDS011;35569;48.402;10.670;2022-10-22T00:11:51;1.63;;;1.63;;
10489;SDS011;35569;48.402;10.670;2022-10-22T00:12:23;1.60;;;1.60;;
10489;SDS011;35569;48.402;10.670;2022-10-22T00:12:55;1.60;;;1.60;;
10489;SDS011;35569;48.402;10.670;2022-10-22T00:13:30;1.50;;;1.40;;
10489;SDS011;35569;48.402;10.670;2022-10-22T00:14:02;1.30;;;1.30;;
10489;SDS011;35569;48.402;10.670;2022-10-22T00:14:35;1.70;;;1.60;;
10489;SDS011;35569;48.402;10.670;2022-10-22T00:15:10;1.37;;;1.27;;
10489;SDS011;35569;48.402;10.670;2022-10-22T00:15:42;1.40;;;1.40;;
10489;SDS011;35569;48.402;10.670;2022-10-22T00:16:15;1.40;;;1.40;;
10489;SDS011;35569;48.402;10.670;2022-10-22T00:16:49;1.50;;;1.50;;
10489;SDS011;35569;48.402;10.670;2022-10-22T00:17:22;1.60;;;1.60;;
10489;SDS011;35569;48.402;10.670;2022-10-22T00:17:54;1.90;;;1.80;;
10489;SDS011;35569;48.402;10.670;2022-10-22T00:18:29;1.70;;;1.60;;
10489;SDS011;35569;48.402;10.670;2022-10-22T00:19:01;1.43;;;1.43;;
10489;SDS011;35569;48.402;10.670;2022-10-22T00:19:36;1.47;;;1.47;;
10489;SDS011;35569;48.402;10.670;2022-10-22T00:20:11;1.67;;;1.57;;
10489;SDS011;35569;48.402;10.670;2022-10-22T00:20:43;1.90;;;1.80;;
10489;SDS011;35569;48.402;10.670;2022-10-22T00:21:16;1.10;;;1.10;;
10489;SDS011;35569;48.402;10.670;2022-10-22T00:21:50;1.50;;;1.50;;
10489;SDS011;35569;48.402;10.670;2022-10-22T00:22:23;1.63;;;1.60;;
10489;SDS011;35569;48.402;10.670;2022-10-22T00:22:55;1.77;;;1.77;;
10489;SDS011;35569;48.402;10.670;2022-10-22T00:23:30;1.70;;;1.70;;
10489;SDS011;35569;48.402;10.670;2022-10-22T00:24:02;1.50;;;1.50;;
10489;SDS011;35569;48.402;10.670;2022-10-22T00:24:35;1.50;;;1.50;;
10489;SDS011;35569;48.402;10.670;2022-10-22T00:25:10;1.43;;;1.23;;
10489;SDS011;35569;48.402;10.670;2022-10-22T00:25:42;1.57;;;1.57;;
10489;SDS011;35569;48.402;10.670;2022-10-22T00:26:15;1.40;;;1.40;;
10489;SDS011;35569;48.402;10.670;2022-10-22T00:26:47;2.93;;;1.67;;
10489;SDS011;35569;48.402;10.670;2022-10-22T00:27:22;1.37;;;1.27;;
10489;SDS011;35569;48.402;10.670;2022-10-22T00:27:54;1.20;;;1.20;;
10489;SDS011;35569;48.402;10.670;2022-10-22T00:28:26;1.43;;;1.43;;
10489;SDS011;35569;48.402;10.670;2022-10-22T00:29:01;1.37;;;1.30;;
10489;SDS011;35569;48.402;10.670;2022-10-22T00:29:33;1.17;;;1.17;;
10489;SDS011;35569;48.402;10.670;2022-10-22T00:30:06;1.40;;;1.40;;
10489;SDS011;35569;48.402;10.670;2022-10-22T00:30:39;1.13;;;1.13;;
10489;SDS011;35569;48.402;10.670;2022-10-22T00:31:14;1.40;;;1.40;;
10489;SDS011;35569;48.402;10.670;2022-10-22T00:31:46;1.40;;;1.40;;
10489;SDS011;35569;48.402;10.670;2022-10-22T00:32:20;1.30;;;1.30;;
10489;SDS011;35569;48.402;10.670;2022-10-22T00:32:55;1.37;;;1.37;;
10489;SDS011;35569;48.402;10.670;2022-10-22T00:33:27;1.30;;;1.30;;
10489;SDS011;35569;48.402;10.670;2022-10-22T00:34:00;1.20;;;1.20;;
10489;SDS011;35569;48.402;10.670;2022-10-22T00:34:38;1.50;;;1.40;;
10489;SDS011;35569;48.402;10.670;2022-10-22T00:35:10;1.30;;;1.30;;
10489;SDS011;35569;48.402;10.670;2022-10-22T00:35:42;1.40;;;1.40;;
10489;SDS011;35569;48.402;10.670;2022-10-22T00:36:15;1.50;;;1.50;;
10489;SDS011;35569;48.402;10.670;2022-10-22T00:36:50;1.50;;;1.40;;
10489;SDS011;35569;48.402;10.670;2022-10-22T00:37:23;1.43;;;1.43;;
10489;SDS011;35569;48.402;10.670;2022-10-22T00:37:55;1.43;;;1.33;;
10489;SDS011;35569;48.402;10.670;2022-10-22T00:38:27;1.60;;;1.50;;
10489;SDS011;35569;48.402;10.670;2022-10-22T00:39:02;1.53;;;1.43;;
10489;SDS011;35569;48.402;10.670;2022-10-22T00:39:34;1.27;;;1.27;;
10489;SDS011;35569;48.402;10.670;2022-10-22T00:40:07;1.63;;;1.53;;
10489;SDS011;35569;48.402;10.670;2022-10-22T00:40:43;1.27;;;1.27;;
10489;SDS011;35569;48.402;10.670;2022-10-22T00:41:15;1.33;;;1.33;;
10489;SDS011;35569;48.402;10.670;2022-10-22T00:41:51;1.43;;;1.43;;
10489;SDS011;35569;48.402;10.670;2022-10-22T00:42:25;1.30;;;1.30;;
10489;SDS011;35569;48.402;10.670;2022-10-22T00:42:59;1.33;;;1.33;;
10489;SDS011;35569;48.402;10.670;2022-10-22T00:45:30;1.33;;;1.33;;
10489;SDS011;35569;48.402;10.670;2022-10-22T00:46:02;1.30;;;1.30;;
10489;SDS011;35569;48.402;10.670;2022-10-22T00:46:37;1.77;;;1.77;;
10489;SDS011;35569;48.402;10.670;2022-10-22T00:47:09;1.40;;;1.30;;
10489;SDS011;35569;48.402;10.670;2022-10-22T00:47:42;1.53;;;1.47;;
10489;SDS011;35569;48.402;10.670;2022-10-22T00:48:19;1.40;;;1.30;;
10489;SDS011;35569;48.402;10.670;2022-10-22T00:48:56;1.27;;;1.27;;
10489;SDS011;35569;48.402;10.670;2022-10-22T00:49:30;1.20;;;1.20;;
10489;SDS011;35569;48.402;10.670;2022-10-22T00:50:05;1.50;;;1.50;;
10489;SDS011;35569;48.402;10.670;2022-10-22T00:50:40;1.27;;;1.27;;
10489;SDS011;35569;48.402;10.670;2022-10-22T00:51:17;1.70;;;1.60;;
10489;SDS011;35569;48.402;10.670;2022-10-22T00:51:49;1.23;;;1.23;;
10489;SDS011;35569;48.402;10.670;2022-10-22T00:52:22;1.30;;;1.30;;
10489;SDS011;35569;48.402;10.670;2022-10-22T00:52:54;1.30;;;1.30;;
10489;SDS011;35569;48.402;10.670;2022-10-22T00:53:30;1.40;;;1.40;;
10489;SDS011;35569;48.402;10.670;2022-10-22T00:54:05;1.53;;;1.53;;
10489;SDS011;35569;48.402;10.670;2022-10-22T00:54:42;1.63;;;1.40;;
10489;SDS011;35569;48.402;10.670;2022-10-22T00:55:14;1.20;;;1.20;;
10489;SDS011;35569;48.402;10.670;2022-10-22T00:55:48;1.40;;;1.40;;
10489;SDS011;35569;48.402;10.670;2022-10-22T00:56:25;1.50;;;1.50;;
10489;SDS011;35569;48.402;10.670;2022-10-22T00:56:57;1.47;;;1.47;;
10489;SDS011;35569;48.402;10.670;2022-10-22T00:57:30;1.50;;;1.50;;
10489;SDS011;35569;48.402;10.670;2022-10-22T00:58:02;3.90;;;1.20;;
10489;SDS011;35569;48.402;10.670;2022-10-22T00:58:38;1.40;;;1.40;;
10489;SDS011;35569;48.402;10.670;2022-10-22T00:59:12;1.33;;;1.33;;
10489;SDS011;35569;48.402;10.670;2022-10-22T00:59:45;1.30;;;1.30;;
10489;SDS011;35569;48.402;10.670;2022-10-22T01:00:21;2.40;;;1.10;;
10489;SDS011;35569;48.402;10.670;2022-10-22T01:00:53;1.10;;;1.10;;
10489;SDS011;35569;48.402;10.670;2022-10-22T01:01:27;1.30;;;1.30;;
10489;SDS011;35569;48.402;10.670;2022-10-22T01:02:03;1.40;;;1.40;;
10489;SDS011;35569;48.402;10.670;2022-10-22T01:02:35;1.60;;;1.60;;
10489;SDS011;35569;48.402;10.670;2022-10-22T01:03:08;1.20;;;1.20;;
10489;SDS011;35569;48.402;10.670;2022-10-22T01:03:43;1.33;;;1.33;;
10489;SDS011;35569;48.402;10.670;2022-10-22T01:04:15;1.30;;;1.30;;
10489;SDS011;35569;48.402;10.670;2022-10-22T01:04:47;1.57;;;1.57;;
10489;SDS011;35569;48.402;10.670;2022-10-22T01:05:24;1.40;;;1.40;;
10489;SDS011;35569;48.402;10.670;2022-10-22T01:06:00;1.50;;;1.50;;
10489;SDS011;35569;48.402;10.670;2022-10-22T01:06:34;1.30;;;1.30;;
10489;SDS011;35569;48.402;10.670;2022-10-22T01:07:08;1.20;;;1.20;;
10489;SDS011;35569;48.402;10.670;2022-10-22T01:07:48;1.60;;;1.60;;
10489;SDS011;35569;48.402;10.670;2022-10-22T01:08:24;1.90;;;1.90;;
10489;SDS011;35569;48.402;10.670;2022-10-22T01:09:02;1.10;;;1.10;;
10489;SDS011;35569;48.402;10.670;2022-10-22T01:09:41;1.40;;;1.40;;
10489;SDS011;35569;48.402;10.670;2022-10-22T01:10:19;1.60;;;1.60;;
10489;SDS011;35569;48.402;10.670;2022-10-22T01:11:10;1.37;;;1.37;;
10489;SDS011;35569;48.402;10.670;2022-10-22T01:11:52;1.40;;;1.40;;
10489;SDS011;35569;48.402;10.670;2022-10-22T01:12:33;1.40;;;1.40;;
10489;SDS011;35569;48.402;10.670;2022-10-22T01:13:18;1.90;;;1.80;;
10489;SDS011;35569;48.402;10.670;2022-10-22T01:14:01;1.30;;;1.30;;
10489;SDS011;35569;48.402;10.670;2022-10-22T01:14:38;1.40;;;1.40;;
10489;SDS011;35569;48.402;10.670;2022-10-22T01:15:20;1.60;;;1.60;;
10489;SDS011;35569;48.402;10.670;2022-10-22T01:15:55;1.40;;;1.40;;
10489;SDS011;35569;48.402;10.670;2022-10-22T01:16:32;1.73;;;1.73;;
10489;SDS011;35569;48.402;10.670;2022-10-22T01:17:12;1.73;;;1.73;;
10489;SDS011;35569;48.402;10.670;2022-10-22T01:17:51;1.40;;;1.40;;
10489;SDS011;35569;48.402;10.670;2022-10-22T01:18:28;1.70;;;1.70;;
10489;SDS011;35569;48.402;10.670;2022-10-22T01:19:11;1.73;;;1.73;;
10489;SDS011;35569;48.402;10.670;2022-10-22T01:20:04;1.50;;;1.50;;
10489;SDS011;35569;48.402;10.670;2022-10-22T01:21:44;1.50;;;1.50;;
10489;SDS011;35569;48.402;10.670;2022-10-22T01:22:22;1.37;;;1.37;;
10489;SDS011;35569;48.402;10.670;2022-10-22T01:23:00;1.50;;;1.50;;
10489;SDS011;35569;48.402;10.670;2022-10-22T01:25:04;1.30;;;1.30;;
10489;SDS011;35569;48.402;10.670;2022-10-22T01:25:42;1.60;;;1.60;;
10489;SDS011;35569;48.402;10.670;2022-10-22T01:26:20;1.90;;;1.80;;
10489;SDS011;35569;48.402;10.670;2022-10-22T01:27:02;1.87;;;1.77;;
10489;SDS011;35569;48.402;10.670;2022-10-22T01:27:43;1.93;;;1.90;;
10489;SDS011;35569;48.402;10.670;2022-10-22T01:28:25;1.90;;;1.90;;
10489;SDS011;35569;48.402;10.670;2022-10-22T01:29:11;1.50;;;1.50;;
10489;SDS011;35569;48.402;10.670;2022-10-22T01:29:45;1.60;;;1.60;;
10489;SDS011;35569;48.402;10.670;2022-10-22T01:30:22;1.40;;;1.40;;
10489;SDS011;35569;48.402;10.670;2022-10-22T01:30:55;1.50;;;1.50;;
10489;SDS011;35569;48.402;10.670;2022-10-22T01:31:29;1.50;;;1.50;;
10489;SDS011;35569;48.402;10.670;2022-10-22T01:32:16;1.90;;;1.90;;
10489;SDS011;35569;48.402;10.670;2022-10-22T01:32:51;1.70;;;1.70;;
10489;SDS011;35569;48.402;10.670;2022-10-22T01:33:23;1.67;;;1.67;;
10489;SDS011;35569;48.402;10.670;2022-10-22T01:33:58;1.70;;;1.70;;
10489;SDS011;35569;48.402;10.670;2022-10-22T01:34:31;1.77;;;1.77;;
10489;SDS011;35569;48.402;10.670;2022-10-22T01:35:05;1.60;;;1.60;;
10489;SDS011;35569;48.402;10.670;2022-10-22T01:35:42;1.60;;;1.60;;
10489;SDS011;35569;48.402;10.670;2022-10-22T01:36:15;1.60;;;1.60;;
10489;SDS011;35569;48.402;10.670;2022-10-22T01:36:48;1.60;;;1.60;;
10489;SDS011;35569;48.402;10.670;2022-10-22T01:37:25;1.60;;;1.50;;
10489;SDS011;35569;48.402;10.670;2022-10-22T01:38:01;1.27;;;1.27;;
10489;SDS011;35569;48.402;10.670;2022-10-22T01:38:35;1.37;;;1.30;;
10489;SDS011;35569;48.402;10.670;2022-10-22T01:39:11;1.37;;;1.37;;
10489;SDS011;35569;48.402;10.670;2022-10-22T01:39:45;1.60;;;1.60;;
10489;SDS011;35569;48.402;10.670;2022-10-22T01:40:18;1.43;;;1.43;;
10489;SDS011;35569;48.402;10.670;2022-10-22T01:40:53;1.50;;;1.50;;
10489;SDS011;35569;48.402;10.670;2022-10-22T01:41:26;1.30;;;1.30;;
10489;SDS011;35569;48.402;10.670;2022-10-22T01:41:59;1.30;;;1.30;;
10489;SDS011;35569;48.402;10.670;2022-10-22T01:42:34;1.17;;;1.17;;
10489;SDS011;35569;48.402;10.670;2022-10-22T01:43:07;1.47;;;1.47;;
10489;SDS011;35569;48.402;10.670;2022-10-22T01:43:43;1.40;;;1.37;;
10489;SDS011;35569;48.402;10.670;2022-10-22T01:44:23;1.20;;;1.20;;
10489;SDS011;35569;48.402;10.670;2022-10-22T01:44:58;1.00;;;1.00;;
10489;SDS011;35569;48.402;10.670;2022-10-22T01:45:35;1.43;;;1.43;;
10489;SDS011;35569;48.402;10.670;2022-10-22T01:46:09;1.40;;;1.30;;
10489;SDS011;35569;48.402;10.670;2022-10-22T01:46:42;1.20;;;1.20;;
10489;SDS011;35569;48.402;10.670;2022-10-22T01:47:20;1.20;;;1.20;;
10489;SDS011;35569;48.402;10.670;2022-10-22T01:48:04;1.13;;;1.13;;
10489;SDS011;35569;48.402;10.670;2022-10-22T01:48:44;1.10;;;1.10;;
10489;SDS011;35569;48.402;10.670;2022-10-22T01:49:29;1.00;;;1.00;;
10489;SDS011;35569;48.402;10.670;2022-10-22T01:50:12;1.20;;;1.20;;
10489;SDS011;35569;48.402;10.670;2022-10-22T01:51:48;1.07;;;1.07;;
10489;SDS011;35569;48.402;10.670;2022-10-22T01:52:26;1.23;;;1.23;;
10489;SDS011;35569;48.402;10.670;2022-10-22T01:53:11;1.30;;;1.30;;
10489;SDS011;35569;48.402;10.670;2022-10-22T01:53:53;0.97;;;0.97;;
10489;SDS011;35569;48.402;10.670;2022-10-22T01:54:30;1.07;;;1.07;;
10489;SDS011;35569;48.402;10.670;2022-10-22T01:55:07;1.20;;;1.10;;
10489;SDS011;35569;48.402;10.670;2022-10-22T01:55:50;0.90;;;0.90;;
10489;SDS011;35569;48.402;10.670;2022-10-22T01:56:30;0.80;;;0.80;;
10489;SDS011;35569;48.402;10.670;2022-10-22T01:57:13;1.10;;;1.10;;
10489;SDS011;35569;48.402;10.670;2022-10-22T01:57:56;0.70;;;0.70;;
10489;SDS011;35569;48.402;10.670;2022-10-22T01:58:37;0.80;;;0.80;;
10489;SDS011;35569;48.402;10.670;2022-10-22T01:59:16;0.80;;;0.80;;
10489;SDS011;35569;48.402;10.670;2022-10-22T01:59:56;0.90;;;0.90;;
10489;SDS011;35569;48.402;10.670;2022-10-22T02:00:30;0.87;;;0.87;;
10489;SDS011;35569;48.402;10.670;2022-10-22T02:01:03;1.00;;;1.00;;
10489;SDS011;35569;48.402;10.670;2022-10-22T02:01:41;0.77;;;0.77;;
10489;SDS011;35569;48.402;10.670;2022-10-22T02:02:23;0.52;;;0.52;;
10489;SDS011;35569;48.402;10.670;2022-10-22T02:03:02;0.70;;;0.70;;
10489;SDS011;35569;48.402;10.670;2022-10-22T02:03:38;0.73;;;0.60;;
10489;SDS011;35569;48.402;10.670;2022-10-22T02:04:12;0.80;;;0.80;;
10489;SDS011;35569;48.402;10.670;2022-10-22T02:04:51;0.80;;;0.80;;
10489;SDS011;35569;48.402;10.670;2022-10-22T02:05:27;0.70;;;0.70;;
10489;SDS011;35569;48.402;10.670;2022-10-22T02:06:06;0.70;;;0.70;;
10489;SDS011;35569;48.402;10.670;2022-10-22T02:06:42;0.77;;;0.77;;
10489;SDS011;35569;48.402;10.670;2022-10-22T02:07:18;0.70;;;0.70;;
10489;SDS011;35569;48.402;10.670;2022-10-22T02:07:53;0.70;;;0.70;;
10489;SDS011;35569;48.402;10.670;2022-10-22T02:08:27;0.70;;;0.60;;
10489;SDS011;35569;48.402;10.670;2022-10-22T02:09:04;0.67;;;0.67;;
10489;SDS011;35569;48.402;10.670;2022-10-22T02:09:37;0.77;;;0.77;;
10489;SDS011;35569;48.402;10.670;2022-10-22T02:10:10;0.60;;;0.60;;
10489;SDS011;35569;48.402;10.670;2022-10-22T02:10:46;0.70;;;0.70;;
10489;SDS011;35569;48.402;10.670;2022-10-22T02:11:19;0.63;;;0.63;;
10489;SDS011;35569;48.402;10.670;2022-10-22T02:11:52;0.77;;;0.70;;
10489;SDS011;35569;48.402;10.670;2022-10-22T02:12:27;0.70;;;0.70;;
10489;SDS011;35569;48.402;10.670;2022-10-22T02:13:01;0.70;;;0.70;;
10489;SDS011;35569;48.402;10.670;2022-10-22T02:13:35;0.60;;;0.60;;
10489;SDS011;35569;48.402;10.670;2022-10-22T02:14:15;0.70;;;0.70;;
10489;SDS011;35569;48.402;10.670;2022-10-22T02:14:49;0.70;;;0.70;;
10489;SDS011;35569;48.402;10.670;2022-10-22T02:15:23;0.77;;;0.77;;
10489;SDS011;35569;48.402;10.670;2022-10-22T02:15:59;0.60;;;0.60;;
10489;SDS011;35569;48.402;10.670;2022-10-22T02:16:33;0.70;;;0.70;;
10489;SDS011;35569;48.402;10.670;2022-10-22T02:17:08;0.80;;;0.80;;
10489;SDS011;35569;48.402;10.670;2022-10-22T02:17:47;0.60;;;0.60;;
10489;SDS011;35569;48.402;10.670;2022-10-22T02:18:21;0.77;;;0.77;;
10489;SDS011;35569;48.402;10.670;2022-10-22T02:18:55;0.73;;;0.73;;
10489;SDS011;35569;48.402;10.670;2022-10-22T02:19:34;0.70;;;0.70;;
10489;SDS011;35569;48.402;10.670;2022-10-22T02:20:12;0.70;;;0.70;;
10489;SDS011;35569;48.402;10.670;2022-10-22T02:20:47;1.07;;;1.07;;
10489;SDS011;35569;48.402;10.670;2022-10-22T02:21:22;0.90;;;0.90;;
10489;SDS011;35569;48.402;10.670;2022-10-22T02:21:54;1.00;;;1.00;;
10489;SDS011;35569;48.402;10.670;2022-10-22T02:22:26;0.83;;;0.83;;
10489;SDS011;35569;48.402;10.670;2022-10-22T02:23:01;0.90;;;0.90;;
10489;SDS011;35569;48.402;10.670;2022-10-22T02:23:34;0.97;;;0.97;;
10489;SDS011;35569;48.402;10.670;2022-10-22T02:24:06;0.80;;;0.80;;
10489;SDS011;35569;48.402;10.670;2022-10-22T02:24:41;1.00;;;1.00;;
10489;SDS011;35569;48.402;10.670;2022-10-22T02:25:14;1.00;;;1.00;;
10489;SDS011;35569;48.402;10.670;2022-10-22T02:25:48;1.00;;;1.00;;
10489;SDS011;35569;48.402;10.670;2022-10-22T02:26:28;1.00;;;1.00;;
10489;SDS011;35569;48.402;10.670;2022-10-22T02:27:06;1.10;;;1.10;;
10489;SDS011;35569;48.402;10.670;2022-10-22T02:27:43;1.10;;;1.10;;
10489;SDS011;35569;48.402;10.670;2022-10-22T02:28:18;1.00;;;1.00;;
10489;SDS011;35569;48.402;10.670;2022-10-22T02:29:01;0.80;;;0.80;;
10489;SDS011;35569;48.402;10.670;2022-10-22T02:29:38;1.07;;;1.07;;
10489;SDS011;35569;48.402;10.670;2022-10-22T02:30:13;1.10;;;1.10;;
10489;SDS011;35569;48.402;10.670;2022-10-22T02:30:51;0.90;;;0.90;;
10489;SDS011;35569;48.402;10.670;2022-10-22T02:31:26;1.10;;;1.10;;
10489;SDS011;35569;48.402;10.670;2022-10-22T02:31:59;0.90;;;0.90;;
10489;SDS011;35569;48.402;10.670;2022-10-22T02:32:38;1.00;;;1.00;;
10489;SDS011;35569;48.402;10.670;2022-10-22T02:33:14;1.00;;;1.00;;
10489;SDS011;35569;48.402;10.670;2022-10-22T02:33:49;1.60;;;1.03;;
10489;SDS011;35569;48.402;10.670;2022-10-22T02:34:26;1.10;;;1.10;;
10489;SDS011;35569;48.402;10.670;2022-10-22T02:35:01;1.30;;;1.30;;
10489;SDS011;35569;48.402;10.670;2022-10-22T02:35:34;1.37;;;1.37;;
10489;SDS011;35569;48.402;10.670;2022-10-22T02:36:09;0.90;;;0.90;;
10489;SDS011;35569;48.402;10.670;2022-10-22T02:36:42;1.30;;;1.23;;
10489;SDS011;35569;48.402;10.670;2022-10-22T02:37:20;1.20;;;1.20;;
10489;SDS011;35569;48.402;10.670;2022-10-22T02:37:56;1.07;;;1.07;;
10489;SDS011;35569;48.402;10.670;2022-10-22T02:38:28;1.10;;;1.10;;
10489;SDS011;35569;48.402;10.670;2022-10-22T02:39:01;1.10;;;1.10;;
10489;SDS011;35569;48.402;10.670;2022-10-22T02:39:37;0.90;;;0.90;;
10489;SDS011;35569;48.402;10.670;2022-10-22T02:40:09;1.10;;;1.10;;
10489;SDS011;35569;48.402;10.670;2022-10-22T02:40:42;0.90;;;0.90;;
10489;SDS011;35569;48.402;10.670;2022-10-22T02:41:17;1.30;;;1.30;;
10489;SDS011;35569;48.402;10.670;2022-10-22T02:41:49;0.90;;;0.90;;
10489;SDS011;35569;48.402;10.670;2022-10-22T02:42:22;0.90;;;0.90;;
10489;SDS011;35569;48.402;10.670;2022-10-22T02:42:57;0.90;;;0.90;;
10489;SDS011;35569;48.402;10.670;2022-10-22T02:43:30;1.00;;;1.00;;
10489;SDS011;35569;48.402;10.670;2022-10-22T02:44:10;1.10;;;1.10;;
10489;SDS011;35569;48.402;10.670;2022-10-22T02:44:47;1.20;;;1.20;;
10489;SDS011;35569;48.402;10.670;2022-10-22T02:45:19;1.27;;;1.27;;
10489;SDS011;35569;48.402;10.670;2022-10-22T02:45:52;1.20;;;1.20;;
10489;SDS011;35569;48.402;10.670;2022-10-22T02:46:24;1.57;;;1.20;;
10489;SDS011;35569;48.402;10.670;2022-10-22T02:46:59;0.83;;;0.83;;
10489;SDS011;35569;48.402;10.670;2022-10-22T02:47:31;6.50;;;1.23;;
10489;SDS011;35569;48.402;10.670;2022-10-22T02:48:04;0.90;;;0.90;;
10489;SDS011;35569;48.402;10.670;2022-10-22T02:48:39;1.20;;;1.20;;
10489;SDS011;35569;48.402;10.670;2022-10-22T02:49:11;1.00;;;1.00;;
10489;SDS011;35569;48.402;10.670;2022-10-22T02:49:43;2.20;;;0.83;;
10489;SDS011;35569;48.402;10.670;2022-10-22T02:50:18;1.10;;;1.10;;
10489;SDS011;35569;48.402;10.670;2022-10-22T02:50:50;0.77;;;0.77;;
10489;SDS011;35569;48.402;10.670;2022-10-22T02:51:23;1.00;;;1.00;;
10489;SDS011;35569;48.402;10.670;2022-10-22T02:51:57;1.10;;;1.10;;
10489;SDS011;35569;48.402;10.670;2022-10-22T02:52:30;1.00;;;1.00;;
10489;SDS011;35569;48.402;10.670;2022-10-22T02:53:02;1.10;;;1.10;;
10489;SDS011;35569;48.402;10.670;2022-10-22T02:53:37;0.80;;;0.80;;
10489;SDS011;35569;48.402;10.670;2022-10-22T02:54:09;0.90;;;0.90;;
10489;SDS011;35569;48.402;10.670;2022-10-22T02:54:41;1.03;;;1.00;;
10489;SDS011;35569;48.402;10.670;2022-10-22T02:55:16;1.33;;;1.33;;
10489;SDS011;35569;48.402;10.670;2022-10-22T02:55:49;1.03;;;1.03;;
10489;SDS011;35569;48.402;10.670;2022-10-22T02:56:21;1.00;;;1.00;;
10489;SDS011;35569;48.402;10.670;2022-10-22T02:56:56;1.13;;;1.13;;
10489;SDS011;35569;48.402;10.670;2022-10-22T02:57:28;1.00;;;1.00;;
10489;SDS011;35569;48.402;10.670;2022-10-22T02:58:00;0.93;;;0.93;;
10489;SDS011;35569;48.402;10.670;2022-10-22T02:58:32;1.00;;;1.00;;
10489;SDS011;35569;48.402;10.670;2022-10-22T02:59:07;0.83;;;0.83;;
10489;SDS011;35569;48.402;10.670;2022-10-22T02:59:39;1.00;;;1.00;;
10489;SDS011;35569;48.402;10.670;2022-10-22T03:00:15;1.37;;;1.37;;
10489;SDS011;35569;48.402;10.670;2022-10-22T03:00:50;1.20;;;1.10;;
10489;SDS011;35569;48.402;10.670;2022-10-22T03:01:22;1.40;;;1.40;;
10489;SDS011;35569;48.402;10.670;2022-10-22T03:01:54;1.20;;;1.20;;
10489;SDS011;35569;48.402;10.670;2022-10-22T03:02:29;1.10;;;1.10;;
10489;SDS011;35569;48.402;10.670;2022-10-22T03:03:01;0.93;;;0.93;;
10489;SDS011;35569;48.402;10.670;2022-10-22T03:03:34;0.97;;;0.97;;
10489;SDS011;35569;48.402;10.670;2022-10-22T03:04:06;1.07;;;1.07;;
10489;SDS011;35569;48.402;10.670;2022-10-22T03:04:41;0.97;;;0.97;;
10489;SDS011;35569;48.402;10.670;2022-10-22T03:05:13;0.80;;;0.80;;
10489;SDS011;35569;48.402;10.670;2022-10-22T03:05:45;0.90;;;0.90;;
10489;SDS011;35569;48.402;10.670;2022-10-22T03:06:18;1.10;;;1.10;;
10489;SDS011;35569;48.402;10.670;2022-10-22T03:06:53;0.80;;;0.80;;
10489;SDS011;35569;48.402;10.670;2022-10-22T03:07:25;1.10;;;1.10;;
10489;SDS011;35569;48.402;10.670;2022-10-22T03:07:57;0.90;;;0.90;;
10489;SDS011;35569;48.402;10.670;2022-10-22T03:08:32;1.00;;;1.00;;
10489;SDS011;35569;48.402;10.670;2022-10-22T03:09:04;3.07;;;0.93;;
10489;SDS011;35569;48.402;10.670;2022-10-22T03:09:37;1.00;;;1.00;;
10489;SDS011;35569;48.402;10.670;2022-10-22T03:10:11;0.90;;;0.90;;
10489;SDS011;35569;48.402;10.670;2022-10-22T03:10:44;0.80;;;0.80;;
10489;SDS011;35569;48.402;10.670;2022-10-22T03:11:16;0.80;;;0.80;;
10489;SDS011;35569;48.402;10.670;2022-10-22T03:11:51;0.90;;;0.90;;
10489;SDS011;35569;48.402;10.670;2022-10-22T03:12:23;1.00;;;1.00;;
10489;SDS011;35569;48.402;10.670;2022-10-22T03:12:56;0.80;;;0.80;;
10489;SDS011;35569;48.402;10.670;2022-10-22T03:13:31;1.00;;;1.00;;
10489;SDS011;35569;48.402;10.670;2022-10-22T03:14:03;0.97;;;0.97;;
10489;SDS011;35569;48.402;10.670;2022-10-22T03:14:35;0.90;;;0.90;;
10489;SDS011;35569;48.402;10.670;2022-10-22T03:15:10;1.00;;;1.00;;
10489;SDS011;35569;48.402;10.670;2022-10-22T03:15:45;0.97;;;0.97;;
10489;SDS011;35569;48.402;10.670;2022-10-22T03:16:19;0.83;;;0.83;;
10489;SDS011;35569;48.402;10.670;2022-10-22T03:16:54;0.60;;;0.60;;
10489;SDS011;35569;48.402;10.670;2022-10-22T03:17:26;1.10;;;1.10;;
10489;SDS011;35569;48.402;10.670;2022-10-22T03:17:58;0.80;;;0.80;;
10489;SDS011;35569;48.402;10.670;2022-10-22T03:18:33;0.70;;;0.70;;
10489;SDS011;35569;48.402;10.670;2022-10-22T03:19:05;0.90;;;0.90;;
10489;SDS011;35569;48.402;10.670;2022-10-22T03:19:37;0.90;;;0.90;;
10489;SDS011;35569;48.402;10.670;2022-10-22T03:20:12;0.97;;;0.93;;
10489;SDS011;35569;48.402;10.670;2022-10-22T03:20:44;0.80;;;0.80;;
10489;SDS011;35569;48.402;10.670;2022-10-22T03:21:20;0.80;;;0.80;;
10489;SDS011;35569;48.402;10.670;2022-10-22T03:21:58;0.80;;;0.80;;
10489;SDS011;35569;48.402;10.670;2022-10-22T03:22:32;0.60;;;0.60;;
10489;SDS011;35569;48.402;10.670;2022-10-22T03:23:05;0.70;;;0.70;;
10489;SDS011;35569;48.402;10.670;2022-10-22T03:23:40;0.77;;;0.77;;
10489;SDS011;35569;48.402;10.670;2022-10-22T03:24:14;0.60;;;0.60;;
10489;SDS011;35569;48.402;10.670;2022-10-22T03:24:48;0.80;;;0.80;;
10489;SDS011;35569;48.402;10.670;2022-10-22T03:25:25;0.60;;;0.60;;
10489;SDS011;35569;48.402;10.670;2022-10-22T03:25:59;0.70;;;0.70;;
10489;SDS011;35569;48.402;10.670;2022-10-22T03:26:32;0.70;;;0.70;;
10489;SDS011;35569;48.402;10.670;2022-10-22T03:27:07;0.80;;;0.80;;
10489;SDS011;35569;48.402;10.670;2022-10-22T03:27:39;0.60;;;0.60;;
10489;SDS011;35569;48.402;10.670;2022-10-22T03:28:13;0.70;;;0.70;;
10489;SDS011;35569;48.402;10.670;2022-10-22T03:28:46;0.97;;;0.97;;
10489;SDS011;35569;48.402;10.670;2022-10-22T03:29:21;0.70;;;0.70;;
10489;SDS011;35569;48.402;10.670;2022-10-22T03:29:54;0.70;;;0.70;;
10489;SDS011;35569;48.402;10.670;2022-10-22T03:30:27;0.70;;;0.70;;
10489;SDS011;35569;48.402;10.670;2022-10-22T03:31:05;0.80;;;0.80;;
10489;SDS011;35569;48.402;10.670;2022-10-22T03:31:37;0.70;;;0.70;;
10489;SDS011;35569;48.402;10.670;2022-10-22T03:32:09;0.60;;;0.60;;
10489;SDS011;35569;48.402;10.670;2022-10-22T03:32:44;0.70;;;0.70;;